Time;durP1;ratioP1;P1;durP2;ratioP2;P2;SDS_P1;SDS_P2;PMS_P1;PMS_P2;Temp;Humidity;BMP_temperature;BMP_pressure;BME280_temperature;BME280_humidity;BME280_pressure;Samples;Min_cycle;Max_cycle;Signal;HPM_P1;HPM_P2
2021/11/20 00:00:47;;;;;;;31.27;21.90;;;11.80;99.90;;;;;;5014563;28;20419;-69
2021/11/20 00:03:13;;;;;;;29.80;21.77;;;11.70;99.90;;;;;;5014557;28;20466;-69
2021/11/20 00:05:42;;;;;;;30.67;23.17;;;11.70;99.90;;;;;;5014117;28;20465;-69
2021/11/20 00:08:09;;;;;;;30.93;22.07;;;11.70;99.90;;;;;;5013127;28;20425;-69
2021/11/20 00:10:37;;;;;;;30.33;21.33;;;11.70;99.90;;;;;;5014149;28;20477;-71
2021/11/20 00:13:07;;;;;;;30.33;21.67;;;11.70;99.90;;;;;;5012565;28;20466;-69
2021/11/20 00:15:36;;;;;;;30.60;23.87;;;11.70;99.90;;;;;;5013186;28;20433;-69
2021/11/20 00:18:02;;;;;;;27.60;21.00;;;11.80;99.90;;;;;;5013753;28;20513;-70
2021/11/20 00:20:30;;;;;;;29.70;22.10;;;11.80;99.90;;;;;;5013664;28;20429;-70
2021/11/20 00:22:57;;;;;;;29.37;21.40;;;11.80;99.90;;;;;;5012349;28;21001;-69
2021/11/20 00:25:30;;;;;;;33.57;23.03;;;11.70;99.90;;;;;;5011940;28;20430;-69
2021/11/20 00:27:58;;;;;;;33.37;22.47;;;11.70;99.90;;;;;;5008609;28;20414;-69
2021/11/20 00:30:30;;;;;;;32.60;22.70;;;11.70;99.90;;;;;;5012876;28;20479;-70
2021/11/20 00:33:02;;;;;;;32.50;22.50;;;11.70;99.90;;;;;;5012987;28;20454;-69
2021/11/20 00:35:33;;;;;;;28.57;20.90;;;11.70;99.90;;;;;;5012605;28;20437;-69
2021/11/20 00:37:58;;;;;;;32.10;22.50;;;11.70;99.90;;;;;;5011733;28;20468;-69
2021/11/20 00:40:30;;;;;;;33.03;23.50;;;11.70;99.90;;;;;;5012648;28;20540;-68
2021/11/20 00:42:55;;;;;;;28.53;20.73;;;11.70;99.90;;;;;;5012913;28;20218;-68
2021/11/20 00:45:21;;;;;;;29.00;21.10;;;11.70;99.90;;;;;;5012757;28;20422;-68
2021/11/20 00:47:47;;;;;;;33.00;20.30;;;11.80;99.90;;;;;;5012740;28;20187;-69
2021/11/20 00:50:14;;;;;;;30.27;21.43;;;11.70;99.90;;;;;;5012537;28;20430;-69
2021/11/20 00:52:41;;;;;;;34.10;21.87;;;11.60;99.90;;;;;;5012543;28;20497;-69
2021/11/20 00:55:11;;;;;;;28.50;21.40;;;11.60;99.90;;;;;;5012725;28;20422;-69
2021/11/20 00:57:37;;;;;;;30.53;20.53;;;11.60;99.90;;;;;;5012292;28;20517;-69
2021/11/20 01:00:06;;;;;;;33.03;22.37;;;11.60;99.90;;;;;;5017373;28;20496;-68
2021/11/20 01:02:31;;;;;;;31.40;22.10;;;11.50;99.90;;;;;;5023152;28;20218;-68
2021/11/20 01:04:57;;;;;;;30.83;21.60;;;11.50;99.90;;;;;;5012294;28;20493;-70
2021/11/20 01:07:22;;;;;;;39.77;21.60;;;11.60;99.90;;;;;;5006747;28;20180;-69
2021/11/20 01:09:48;;;;;;;30.57;20.90;;;11.50;99.90;;;;;;5015961;28;20203;-69
2021/11/20 01:12:18;;;;;;;28.97;21.00;;;11.50;99.90;;;;;;5012805;28;20207;-69
2021/11/20 01:14:46;;;;;;;29.30;20.83;;;11.50;99.90;;;;;;5012947;28;20199;-70
2021/11/20 01:17:14;;;;;;;27.33;20.50;;;11.60;99.90;;;;;;5011949;28;20418;-70
2021/11/20 01:19:39;;;;;;;28.93;20.73;;;11.60;99.90;;;;;;5012059;28;20426;-69
2021/11/20 01:22:10;;;;;;;29.90;21.23;;;11.50;99.90;;;;;;5011894;28;20438;-69
2021/11/20 01:24:35;;;;;;;30.23;21.70;;;11.50;99.90;;;;;;5011997;28;20222;-70
2021/11/20 01:27:01;;;;;;;31.60;20.80;;;11.50;99.90;;;;;;5011818;28;20919;-68
2021/11/20 01:29:27;;;;;;;28.23;20.70;;;11.60;99.90;;;;;;5015333;28;20826;-69
2021/11/20 01:31:55;;;;;;;29.43;21.20;;;11.60;99.90;;;;;;5012106;28;20438;-68
2021/11/20 01:34:24;;;;;;;31.40;21.33;;;11.50;99.90;;;;;;5011967;28;20179;-69
2021/11/20 01:36:53;;;;;;;27.80;20.77;;;11.50;99.90;;;;;;5010538;28;20439;-68
2021/11/20 01:39:26;;;;;;;28.77;21.07;;;11.50;99.90;;;;;;5009269;28;20479;-68
2021/11/20 01:42:07;;;;;;;33.20;22.40;;;11.50;99.90;;;;;;5012093;28;20965;-68
2021/11/20 01:44:40;;;;;;;26.87;19.63;;;11.60;99.90;;;;;;5012433;28;20903;-69
2021/11/20 01:47:30;;;;;;;30.10;22.70;;;11.60;99.90;;;;;;5013112;28;20411;-69
2021/11/20 01:50:05;;;;;;;29.20;20.57;;;11.50;99.90;;;;;;5012348;28;20410;-68
2021/11/20 01:52:52;;;;;;;29.73;21.27;;;11.50;99.90;;;;;;5012070;28;20426;-69
2021/11/20 01:55:39;;;;;;;29.40;21.43;;;11.60;99.90;;;;;;5011949;28;20541;-68
2021/11/20 01:58:19;;;;;;;28.40;19.87;;;11.60;99.90;;;;;;5014298;28;20504;-68
2021/11/20 02:00:58;;;;;;;30.17;21.10;;;11.60;99.90;;;;;;5021304;28;20414;-68
2021/11/20 02:03:36;;;;;;;29.60;20.27;;;11.60;99.90;;;;;;5011556;28;20461;-68
2021/11/20 02:06:22;;;;;;;34.37;21.80;;;11.50;99.90;;;;;;5011694;28;20785;-69
2021/11/20 02:08:55;;;;;;;33.13;22.63;;;11.50;99.90;;;;;;5012026;28;20413;-68
2021/11/20 02:11:27;;;;;;;28.93;21.20;;;11.50;99.90;;;;;;5011902;28;20395;-68
2021/11/20 02:13:53;;;;;;;30.07;22.30;;;11.50;99.90;;;;;;5049421;22;20489;-68
2021/11/20 02:16:25;;;;;;;33.87;22.63;;;11.40;99.90;;;;;;5030738;28;20917;-71
2021/11/20 02:18:55;;;;;;;33.07;21.67;;;11.40;99.90;;;;;;5031449;28;20167;-70
2021/11/20 02:21:31;;;;;;;32.23;22.60;;;11.50;99.90;;;;;;5031218;28;20809;-69
2021/11/20 02:23:56;;;;;;;33.93;23.80;;;11.50;99.90;;;;;;5013424;28;20454;-70
2021/11/20 02:26:22;;;;;;;31.30;21.93;;;11.50;99.90;;;;;;5011186;28;20498;-70
2021/11/20 02:28:48;;;;;;;30.80;21.73;;;11.50;99.90;;;;;;5009134;28;20211;-71
2021/11/20 02:31:16;;;;;;;31.50;21.53;;;11.50;99.90;;;;;;5011578;28;20172;-70
2021/11/20 02:33:44;;;;;;;29.80;21.20;;;11.50;99.90;;;;;;5011436;28;20434;-71
2021/11/20 02:36:12;;;;;;;29.17;21.00;;;11.50;99.90;;;;;;5011644;28;20431;-69
2021/11/20 02:38:55;;;;;;;30.20;21.23;;;11.40;99.90;;;;;;5013407;28;20437;-70
2021/11/20 02:41:21;;;;;;;36.07;22.40;;;11.40;99.90;;;;;;5014998;28;20438;-70
2021/11/20 02:43:51;;;;;;;29.40;21.63;;;11.40;99.90;;;;;;5014706;28;20493;-70
2021/11/20 02:46:22;;;;;;;31.67;21.70;;;11.40;99.90;;;;;;5014340;28;20294;-70
2021/11/20 02:48:49;;;;;;;34.73;22.80;;;11.40;99.90;;;;;;5014734;28;20399;-69
2021/11/20 02:51:19;;;;;;;32.63;24.33;;;11.30;99.90;;;;;;5014800;28;20410;-69
2021/11/20 02:53:58;;;;;;;35.63;22.83;;;11.30;99.90;;;;;;5014537;28;20434;-70
2021/11/20 02:56:28;;;;;;;32.10;23.98;;;11.30;99.90;;;;;;5013655;28;20465;-69
2021/11/20 02:58:54;;;;;;;31.00;23.10;;;11.30;99.90;;;;;;5014515;28;20621;-69
2021/11/20 03:01:24;;;;;;;30.63;22.10;;;11.30;99.90;;;;;;5014423;28;20477;-69
2021/11/20 03:03:50;;;;;;;33.07;21.63;;;11.30;99.90;;;;;;5014476;28;20206;-69
2021/11/20 03:06:16;;;;;;;30.07;22.03;;;11.30;99.90;;;;;;5014327;28;21135;-69
2021/11/20 03:08:42;;;;;;;31.27;22.23;;;11.30;99.90;;;;;;5014415;28;20259;-68
2021/11/20 03:11:07;;;;;;;32.90;22.80;;;11.30;99.90;;;;;;5014425;28;20210;-71
2021/11/20 03:13:35;;;;;;;32.90;21.33;;;11.30;99.90;;;;;;5013824;28;20478;-68
2021/11/20 03:16:01;;;;;;;29.03;20.87;;;11.30;99.90;;;;;;5014065;28;20179;-70
2021/11/20 03:18:26;;;;;;;31.93;22.07;;;11.30;99.90;;;;;;5013929;28;20421;-69
2021/11/20 03:20:52;;;;;;;30.20;21.20;;;11.40;99.90;;;;;;5014322;28;20199;-69
2021/11/20 03:23:31;;;;;;;32.00;21.67;;;11.40;99.90;;;;;;5013797;28;20210;-69
2021/11/20 03:25:57;;;;;;;34.00;22.07;;;11.40;99.90;;;;;;5013872;28;20414;-69
2021/11/20 03:28:22;;;;;;;28.93;21.73;;;11.30;99.90;;;;;;5014018;28;20486;-69
2021/11/20 03:30:49;;;;;;;34.67;21.13;;;11.40;99.90;;;;;;5013630;28;20171;-67
2021/11/20 03:33:16;;;;;;;26.73;20.57;;;11.40;99.90;;;;;;5013795;28;20196;-68
2021/11/20 03:35:43;;;;;;;30.93;22.10;;;11.40;99.90;;;;;;5013355;28;20442;-69
2021/11/20 03:38:09;;;;;;;33.40;23.43;;;11.40;99.90;;;;;;5012436;28;20423;-69
2021/11/20 03:40:35;;;;;;;30.83;23.33;;;11.40;99.90;;;;;;5013652;28;20926;-69
2021/11/20 03:43:01;;;;;;;28.83;21.47;;;11.40;99.90;;;;;;5013496;28;20282;-71
2021/11/20 03:45:30;;;;;;;30.90;21.30;;;11.40;99.90;;;;;;5013815;28;20438;-69
2021/11/20 03:47:56;;;;;;;32.23;21.37;;;11.40;99.90;;;;;;5012699;28;20422;-70
2021/11/20 03:50:23;;;;;;;27.07;19.77;;;11.40;99.90;;;;;;5013114;28;20768;-68
2021/11/20 03:52:49;;;;;;;27.77;20.97;;;11.40;99.90;;;;;;5013530;28;20516;-69
2021/11/20 03:55:19;;;;;;;26.33;18.70;;;11.40;99.90;;;;;;5013702;28;20784;-69
2021/11/20 03:57:45;;;;;;;26.13;19.57;;;11.30;99.90;;;;;;5013717;28;20796;-70
2021/11/20 04:00:14;;;;;;;28.67;20.50;;;11.40;99.90;;;;;;5006764;28;20461;-69
2021/11/20 04:02:41;;;;;;;27.25;22.88;;;11.40;99.90;;;;;;5005728;28;20477;-68
2021/11/20 04:05:07;;;;;;;27.20;21.57;;;11.40;99.90;;;;;;5013259;28;20648;-69
2021/11/20 04:07:33;;;;;;;27.30;20.13;;;11.50;99.90;;;;;;5012985;28;20421;-69
2021/11/20 04:09:59;;;;;;;26.58;22.05;;;11.50;99.90;;;;;;5012519;28;20474;-70
2021/11/20 04:12:24;;;;;;;24.90;20.67;;;11.50;99.90;;;;;;5013265;28;20211;-68
2021/11/20 04:14:50;;;;;;;29.33;21.13;;;11.50;99.90;;;;;;5013425;28;20176;-70
2021/11/20 04:17:15;;;;;;;28.67;21.83;;;11.50;99.90;;;;;;5013125;28;20544;-69
2021/11/20 04:19:41;;;;;;;28.37;21.27;;;11.50;99.90;;;;;;5013578;28;20249;-69
2021/11/20 04:22:07;;;;;;;32.67;22.17;;;11.50;99.90;;;;;;5014136;28;20199;-69
2021/11/20 04:24:33;;;;;;;30.60;21.20;;;11.50;99.90;;;;;;5013830;28;20183;-70
2021/11/20 04:26:59;;;;;;;26.50;20.20;;;11.50;99.90;;;;;;5014585;28;20255;-72
2021/11/20 04:29:25;;;;;;;32.87;22.30;;;11.50;99.90;;;;;;5015569;28;20437;-70
2021/11/20 04:31:50;;;;;;;29.13;22.33;;;11.40;99.90;;;;;;5013605;28;20231;-74
2021/11/20 04:34:16;;;;;;;34.10;24.20;;;11.50;99.90;;;;;;5014755;28;20172;-71
2021/11/20 04:36:43;;;;;;;30.80;22.50;;;11.40;99.90;;;;;;5013252;28;20183;-68
2021/11/20 04:39:09;;;;;;;35.73;23.33;;;11.40;99.90;;;;;;5011564;28;20477;-69
2021/11/20 04:41:35;;;;;;;32.20;23.70;;;11.40;99.90;;;;;;5012737;28;20431;-69
2021/11/20 04:44:00;;;;;;;34.10;23.37;;;11.40;99.90;;;;;;5012095;28;20462;-70
2021/11/20 04:46:27;;;;;;;33.70;23.70;;;11.40;99.90;;;;;;5012334;28;20230;-69
2021/11/20 04:48:53;;;;;;;33.80;25.13;;;11.40;99.90;;;;;;4994717;28;20801;-69
2021/11/20 04:51:19;;;;;;;35.10;23.07;;;11.40;99.90;;;;;;5012649;28;20422;-69
2021/11/20 04:53:46;;;;;;;40.57;24.70;;;11.40;99.90;;;;;;5012329;28;20450;-69
2021/11/20 04:56:14;;;;;;;34.13;23.77;;;11.40;99.90;;;;;;5011125;28;20411;-68
2021/11/20 04:58:41;;;;;;;33.80;23.20;;;11.40;99.90;;;;;;5012108;28;20410;-70
2021/11/20 05:01:08;;;;;;;34.60;24.50;;;11.40;99.90;;;;;;5011801;28;20505;-69
2021/11/20 05:03:34;;;;;;;34.80;22.07;;;11.40;99.90;;;;;;5012226;28;20458;-70
2021/11/20 05:05:59;;;;;;;36.17;23.43;;;11.40;99.90;;;;;;5012127;28;20407;-68
2021/11/20 05:08:26;;;;;;;36.37;24.57;;;11.40;99.90;;;;;;5012404;28;20420;-71
2021/11/20 05:10:53;;;;;;;37.25;25.75;;;11.30;99.90;;;;;;5011481;28;20481;-70
2021/11/20 05:13:21;;;;;;;39.70;25.10;;;11.30;99.90;;;;;;5011872;28;20628;-69
2021/11/20 05:15:49;;;;;;;37.17;24.07;;;11.30;99.90;;;;;;5011698;28;20418;-68
2021/11/20 05:18:16;;;;;;;34.80;23.93;;;11.30;99.90;;;;;;5022517;28;20429;-68
2021/11/20 05:20:42;;;;;;;38.77;24.27;;;11.40;99.90;;;;;;5018423;28;20460;-69
2021/11/20 05:23:08;;;;;;;39.93;26.00;;;11.30;99.90;;;;;;5011593;28;20461;-70
2021/11/20 05:25:35;;;;;;;36.20;25.33;;;11.40;99.90;;;;;;5011748;28;20407;-69
2021/11/20 05:28:00;;;;;;;39.20;25.57;;;11.30;99.90;;;;;;5011902;28;20426;-70
2021/11/20 05:30:36;;;;;;;38.27;25.20;;;11.30;99.90;;;;;;5011912;28;20411;-69
2021/11/20 05:33:12;;;;;;;38.83;25.20;;;11.40;99.90;;;;;;5011815;28;20273;-68
2021/11/20 05:35:38;;;;;;;36.73;23.80;;;11.40;99.90;;;;;;5011396;28;20433;-69
2021/11/20 05:38:04;;;;;;;40.60;24.40;;;11.40;99.90;;;;;;5010706;28;20792;-69
2021/11/20 05:40:30;;;;;;;40.17;25.00;;;11.40;99.90;;;;;;5011781;28;20457;-69
2021/11/20 05:42:59;;;;;;;39.03;25.00;;;11.40;99.90;;;;;;5011884;28;20819;-69
2021/11/20 05:45:29;;;;;;;36.47;23.40;;;11.40;99.90;;;;;;4994095;28;20414;-69
2021/11/20 05:47:55;;;;;;;41.53;24.97;;;11.20;99.90;;;;;;5011611;28;20778;-70
2021/11/20 05:50:23;;;;;;;38.20;24.83;;;11.30;99.90;;;;;;5012121;28;20413;-69
2021/11/20 05:52:55;;;;;;;39.23;24.50;;;11.30;99.90;;;;;;5011760;28;20192;-70
2021/11/20 05:55:27;;;;;;;41.33;25.20;;;11.20;99.90;;;;;;5012063;28;20414;-69
2021/11/20 05:57:53;;;;;;;33.43;22.13;;;11.20;99.90;;;;;;5011562;28;20895;-69
2021/11/20 06:00:23;;;;;;;40.97;24.77;;;11.30;99.90;;;;;;5011463;28;20442;-69
2021/11/20 06:02:48;;;;;;;43.47;26.43;;;11.30;99.90;;;;;;5011274;28;20454;-69
2021/11/20 06:05:14;;;;;;;37.60;24.80;;;11.30;99.90;;;;;;5011594;28;20465;-70
2021/11/20 06:07:40;;;;;;;40.57;26.67;;;11.30;99.90;;;;;;5011556;28;20168;-71
2021/11/20 06:10:06;;;;;;;45.73;26.07;;;11.30;99.90;;;;;;5011529;28;20656;-68
2021/11/20 06:12:31;;;;;;;39.23;25.03;;;11.30;99.90;;;;;;5009361;28;20269;-70
2021/11/20 06:14:57;;;;;;;34.80;23.67;;;11.30;99.90;;;;;;5012902;28;20441;-69
2021/11/20 06:17:23;;;;;;;37.40;24.10;;;11.30;99.90;;;;;;5007649;28;20540;-69
2021/11/20 06:19:48;;;;;;;42.80;25.57;;;11.30;99.90;;;;;;5012708;28;20618;-70
2021/11/20 06:22:14;;;;;;;38.60;24.47;;;11.20;99.90;;;;;;5008547;28;20235;-69
2021/11/20 06:24:40;;;;;;;41.78;26.92;;;11.20;99.90;;;;;;5010053;28;20484;-68
2021/11/20 06:27:05;;;;;;;40.40;26.30;;;11.20;99.90;;;;;;5014699;28;20705;-69
2021/11/20 06:29:31;;;;;;;37.43;24.03;;;11.20;99.90;;;;;;5008897;28;20207;-70
2021/11/20 06:31:57;;;;;;;39.10;25.27;;;11.30;99.90;;;;;;5016832;28;20214;-70
2021/11/20 06:34:23;;;;;;;42.00;25.37;;;11.20;99.90;;;;;;5020351;28;20203;-70
2021/11/20 06:36:49;;;;;;;42.40;24.77;;;11.20;99.90;;;;;;5025882;28;20225;-70
2021/11/20 06:39:15;;;;;;;40.53;27.03;;;11.20;99.90;;;;;;5024934;28;20399;-68
2021/11/20 06:41:42;;;;;;;38.17;25.47;;;11.20;99.90;;;;;;5007937;28;20477;-69
2021/11/20 06:44:07;;;;;;;42.43;26.10;;;11.20;99.90;;;;;;5030354;28;20576;-69
2021/11/20 06:46:33;;;;;;;35.57;24.07;;;11.20;99.90;;;;;;5004266;28;20919;-69
2021/11/20 06:49:00;;;;;;;36.70;23.80;;;11.10;99.90;;;;;;5016439;28;20282;-71
2021/11/20 06:51:26;;;;;;;37.70;24.70;;;11.10;99.90;;;;;;5008041;28;20537;-69
2021/11/20 06:53:52;;;;;;;33.87;23.33;;;11.10;99.90;;;;;;5010424;28;20461;-70
2021/11/20 07:01:51;;;;;;;33.40;23.00;;;11.20;99.90;;;;;;5017410;28;20889;-69
2021/11/20 07:04:24;;;;;;;35.57;23.10;;;11.30;99.90;;;;;;5026653;28;20997;-70
2021/11/20 07:06:58;;;;;;;35.70;23.50;;;11.20;99.90;;;;;;5008072;28;20818;-70
2021/11/20 07:09:24;;;;;;;38.00;23.80;;;11.20;99.90;;;;;;5012122;28;20437;-70
2021/11/20 07:11:51;;;;;;;33.50;21.70;;;11.20;99.90;;;;;;5010016;28;21174;-70
2021/11/20 07:14:17;;;;;;;33.47;22.40;;;11.20;99.90;;;;;;5015048;28;20494;-70
2021/11/20 07:16:43;;;;;;;35.40;22.40;;;11.30;99.90;;;;;;5013680;28;20438;-69
2021/11/20 07:19:10;;;;;;;36.43;22.90;;;11.30;99.90;;;;;;5012047;28;20437;-70
2021/11/20 07:21:36;;;;;;;31.10;21.57;;;11.30;99.90;;;;;;5014050;28;20418;-70
2021/11/20 07:24:06;;;;;;;33.83;22.43;;;11.20;99.90;;;;;;5014172;28;20879;-70
2021/11/20 07:26:33;;;;;;;35.07;23.00;;;11.30;99.90;;;;;;5014316;28;20415;-71
2021/11/20 07:28:59;;;;;;;29.67;21.20;;;11.30;99.90;;;;;;5014205;28;20414;-70
2021/11/20 07:31:24;;;;;;;31.70;20.43;;;11.30;99.90;;;;;;5013884;28;20406;-69
2021/11/20 07:33:50;;;;;;;29.63;20.67;;;11.40;99.90;;;;;;5013875;28;20200;-69
2021/11/20 07:36:16;;;;;;;32.20;21.53;;;11.40;99.90;;;;;;5013698;28;20180;-68
2021/11/20 07:38:51;;;;;;;31.60;21.98;;;11.40;99.90;;;;;;5013764;28;20836;-71
2021/11/20 07:41:17;;;;;;;31.80;20.50;;;11.30;99.90;;;;;;5013849;28;20407;-70
2021/11/20 07:43:43;;;;;;;29.80;21.07;;;11.30;99.90;;;;;;5013847;28;20478;-71
2021/11/20 07:46:11;;;;;;;31.13;20.60;;;11.30;99.90;;;;;;5013605;28;20771;-69
2021/11/20 07:48:37;;;;;;;32.10;21.10;;;11.30;99.90;;;;;;4996450;28;20844;-68
2021/11/20 07:51:06;;;;;;;32.77;22.03;;;11.30;99.90;;;;;;5013632;28;20411;-70
2021/11/20 07:53:31;;;;;;;36.00;22.00;;;11.40;99.90;;;;;;5013503;28;20434;-70
2021/11/20 07:55:58;;;;;;;31.80;20.93;;;11.40;99.90;;;;;;5013182;28;20782;-69
2021/11/20 07:58:24;;;;;;;32.87;20.90;;;11.40;99.90;;;;;;5013504;28;20172;-69
2021/11/20 08:00:51;;;;;;;33.40;21.30;;;11.40;99.90;;;;;;5013274;28;20509;-72
2021/11/20 08:03:17;;;;;;;31.23;20.90;;;11.40;99.90;;;;;;5013728;28;20978;-70
2021/11/20 08:05:44;;;;;;;33.43;21.70;;;11.40;99.90;;;;;;5013140;28;20416;-70
2021/11/20 08:08:10;;;;;;;29.27;20.57;;;11.30;99.90;;;;;;5013212;28;20461;-70
2021/11/20 08:10:37;;;;;;;30.20;20.53;;;11.40;99.90;;;;;;5013413;28;20493;-71
2021/11/20 08:13:03;;;;;;;28.03;19.33;;;11.30;99.90;;;;;;5012931;28;20996;-70
2021/11/20 08:15:30;;;;;;;31.67;20.80;;;11.30;99.90;;;;;;5050332;22;20878;-70
2021/11/20 08:17:55;;;;;;;31.43;20.67;;;11.40;99.90;;;;;;5033008;28;20409;-68
2021/11/20 08:20:25;;;;;;;30.93;20.53;;;11.40;99.90;;;;;;5033656;28;20428;-69
2021/11/20 08:22:51;;;;;;;31.97;21.70;;;11.30;99.90;;;;;;5033575;28;20480;-69
2021/11/20 08:25:21;;;;;;;32.60;21.60;;;11.30;99.90;;;;;;5030378;28;20948;-68
2021/11/20 08:27:47;;;;;;;29.03;20.27;;;11.30;99.90;;;;;;5011469;28;20502;-69
2021/11/20 08:30:16;;;;;;;29.67;19.83;;;11.30;99.90;;;;;;5011535;28;20494;-69
2021/11/20 08:32:43;;;;;;;32.53;21.57;;;11.30;99.90;;;;;;5010002;28;20670;-68
2021/11/20 08:35:10;;;;;;;29.60;20.63;;;11.40;99.90;;;;;;5004421;28;20826;-69
2021/11/20 08:37:36;;;;;;;31.60;20.47;;;11.40;99.90;;;;;;5002084;28;20485;-69
2021/11/20 08:40:06;;;;;;;38.77;22.43;;;11.40;99.90;;;;;;5010896;28;20418;-68
2021/11/20 08:42:32;;;;;;;36.20;22.37;;;11.40;99.90;;;;;;5008029;28;20458;-68
2021/11/20 08:44:57;;;;;;;29.57;19.47;;;11.40;99.90;;;;;;4995652;28;20439;-69
2021/11/20 08:47:23;;;;;;;33.50;22.13;;;11.40;99.90;;;;;;5012077;28;20648;-69
2021/11/20 08:49:49;;;;;;;30.67;20.73;;;11.40;99.90;;;;;;5012090;28;20559;-69
2021/11/20 08:52:14;;;;;;;31.00;21.30;;;11.30;99.90;;;;;;5012617;28;20637;-69
2021/11/20 08:54:40;;;;;;;27.70;18.80;;;11.40;99.90;;;;;;5012570;28;20192;-69
2021/11/20 08:57:06;;;;;;;32.67;20.17;;;11.40;99.90;;;;;;5012099;28;20701;-68
2021/11/20 08:59:32;;;;;;;30.67;20.90;;;11.50;99.90;;;;;;5012474;28;20182;-69
2021/11/20 09:02:09;;;;;;;27.93;18.80;;;11.40;99.90;;;;;;4994736;28;20226;-69
2021/11/20 09:04:50;;;;;;;27.40;19.53;;;11.40;99.90;;;;;;5012146;28;21008;-68
2021/11/20 09:07:25;;;;;;;29.07;20.07;;;11.40;99.90;;;;;;5008378;28;20490;-68
2021/11/20 09:10:15;;;;;;;31.60;20.50;;;11.40;99.90;;;;;;5008998;28;20521;-68
2021/11/20 09:12:46;;;;;;;29.80;19.67;;;11.40;99.90;;;;;;5011913;28;20429;-70
2021/11/20 09:15:16;;;;;;;32.30;19.73;;;11.40;99.90;;;;;;5015786;28;20496;-68
2021/11/20 09:17:43;;;;;;;29.67;20.07;;;11.50;99.90;;;;;;5011919;28;20497;-68
2021/11/20 09:20:10;;;;;;;27.57;20.33;;;11.50;99.90;;;;;;4994615;28;20422;-68
2021/11/20 09:22:36;;;;;;;29.37;20.27;;;11.50;99.90;;;;;;5012110;28;20537;-71
2021/11/20 09:25:05;;;;;;;27.90;19.60;;;11.50;99.90;;;;;;5012318;28;20430;-69
2021/11/20 09:27:31;;;;;;;29.93;19.83;;;11.40;99.90;;;;;;5011884;28;20420;-68
2021/11/20 09:29:57;;;;;;;30.53;20.00;;;11.40;99.90;;;;;;5012278;28;20414;-69
2021/11/20 09:32:22;;;;;;;28.00;20.10;;;11.30;99.90;;;;;;5011885;28;21091;-69
2021/11/20 09:34:48;;;;;;;30.30;20.10;;;11.40;99.90;;;;;;5012519;28;20206;-70
2021/11/20 09:37:14;;;;;;;30.37;20.40;;;11.30;99.90;;;;;;5012694;28;20180;-68
2021/11/20 09:39:40;;;;;;;30.60;19.23;;;11.40;99.90;;;;;;4994181;28;20418;-69
2021/11/20 09:42:14;;;;;;;30.87;20.50;;;11.40;99.90;;;;;;5004468;28;20192;-70
2021/11/20 09:44:43;;;;;;;27.10;19.53;;;11.40;99.90;;;;;;5012146;28;20445;-69
2021/11/20 09:47:14;;;;;;;30.03;20.47;;;11.40;99.90;;;;;;5013777;28;20413;-69
2021/11/20 09:49:50;;;;;;;27.77;18.63;;;11.50;99.90;;;;;;5031076;28;20540;-69
2021/11/20 09:52:16;;;;;;;28.47;20.13;;;11.50;99.90;;;;;;5016242;28;20413;-69
2021/11/20 09:54:44;;;;;;;29.63;19.80;;;11.50;99.90;;;;;;5015839;28;20446;-70
2021/11/20 09:57:10;;;;;;;29.77;20.80;;;11.50;99.90;;;;;;5016032;28;20421;-69
2021/11/20 10:00:04;;;;;;;30.57;21.87;;;11.50;99.90;;;;;;5015884;28;20829;-70
2021/11/20 10:02:43;;;;;;;31.00;21.30;;;11.50;99.90;;;;;;5016097;28;20175;-70
2021/11/20 10:05:08;;;;;;;28.20;19.07;;;11.60;99.90;;;;;;5015714;28;20438;-69
2021/11/20 10:07:51;;;;;;;28.07;19.90;;;11.50;99.90;;;;;;5015624;28;20906;-68
2021/11/20 10:10:38;;;;;;;29.40;19.97;;;11.50;99.90;;;;;;5015946;28;20217;-68
2021/11/20 10:13:03;;;;;;;28.17;20.27;;;11.50;99.90;;;;;;5016061;28;20448;-69
2021/11/20 10:15:58;;;;;;;27.97;19.40;;;11.50;99.90;;;;;;5015470;28;20480;-68
2021/11/20 10:18:28;;;;;;;27.33;19.40;;;11.50;99.90;;;;;;5015009;28;20194;-68
2021/11/20 10:21:09;;;;;;;27.23;19.87;;;11.50;99.90;;;;;;5016023;28;20457;-69
2021/11/20 10:23:49;;;;;;;26.63;18.87;;;11.40;99.90;;;;;;5015116;28;20462;-70
2021/11/20 10:26:42;;;;;;;27.40;19.80;;;11.40;99.90;;;;;;5015326;28;20437;-68
2021/11/20 10:29:35;;;;;;;25.57;18.00;;;11.40;99.90;;;;;;5015878;28;20422;-68
2021/11/20 10:32:22;;;;;;;24.70;17.93;;;11.50;99.90;;;;;;5015577;28;20833;-68
2021/11/20 10:34:53;;;;;;;25.60;18.50;;;11.50;99.90;;;;;;4997748;28;20446;-68
2021/11/20 10:37:43;;;;;;;27.47;19.27;;;11.50;99.90;;;;;;5016187;28;20473;-69
2021/11/20 10:40:31;;;;;;;26.33;18.10;;;11.40;99.90;;;;;;5015256;28;20444;-69
2021/11/20 10:43:03;;;;;;;28.53;19.00;;;11.50;99.90;;;;;;5008306;28;20868;-69
2021/11/20 10:45:34;;;;;;;25.80;19.03;;;11.50;99.90;;;;;;4997374;28;20477;-69
2021/11/20 10:48:13;;;;;;;24.73;18.97;;;11.60;99.90;;;;;;4999012;28;20521;-69
2021/11/20 10:50:46;;;;;;;24.40;17.20;;;11.60;99.90;;;;;;5019854;28;20914;-70
2021/11/20 10:53:36;;;;;;;25.30;17.30;;;11.60;99.90;;;;;;4997783;28;20516;-69
2021/11/20 10:56:31;;;;;;;25.37;17.20;;;11.70;99.90;;;;;;5015235;28;20422;-69
2021/11/20 10:59:23;;;;;;;23.63;18.10;;;11.70;99.90;;;;;;5008252;28;20430;-69
2021/11/20 11:02:00;;;;;;;24.77;18.40;;;11.60;99.90;;;;;;5015231;28;20437;-69
2021/11/20 11:04:52;;;;;;;26.40;18.17;;;11.70;99.90;;;;;;5015200;28;20462;-69
2021/11/20 11:07:56;;;;;;;26.00;18.37;;;11.70;99.90;;;;;;5014517;28;20429;-69
2021/11/20 11:10:52;;;;;;;23.30;17.40;;;11.70;99.90;;;;;;4915779;29;20999;-67
2021/11/20 11:13:41;;;;;;;24.77;17.90;;;11.80;99.90;;;;;;4914728;29;20443;-70
2021/11/20 11:16:31;;;;;;;24.10;18.10;;;11.60;99.90;;;;;;4915928;29;20951;-70
2021/11/20 11:19:21;;;;;;;24.40;17.33;;;11.70;99.90;;;;;;4916079;29;20427;-69
2021/11/20 11:21:56;;;;;;;24.80;17.90;;;11.70;99.90;;;;;;4915913;29;20426;-69
2021/11/20 11:24:36;;;;;;;23.60;16.80;;;11.70;99.90;;;;;;4900301;29;20480;-69
2021/11/20 11:27:17;;;;;;;22.40;16.40;;;11.60;99.90;;;;;;4915624;29;20433;-68
2021/11/20 11:30:04;;;;;;;24.80;17.60;;;11.50;99.90;;;;;;4915315;29;20438;-69
2021/11/20 11:32:32;;;;;;;20.53;15.80;;;11.60;99.90;;;;;;4901691;29;20281;-69
2021/11/20 11:35:34;;;;;;;23.27;16.57;;;11.60;99.90;;;;;;4915919;29;20446;-69
2021/11/20 11:38:05;;;;;;;24.60;16.30;;;11.60;99.90;;;;;;4860760;29;20433;-69
2021/11/20 11:40:50;;;;;;;22.70;16.30;;;11.50;99.90;;;;;;4886462;29;20422;-69
2021/11/20 11:43:51;;;;;;;20.50;14.97;;;11.60;99.90;;;;;;4933078;29;20476;-68
2021/11/20 11:46:29;;;;;;;22.07;15.40;;;11.60;99.90;;;;;;4876872;29;20955;-69
2021/11/20 11:49:19;;;;;;;18.50;14.60;;;11.50;99.90;;;;;;4877566;29;20520;-69
2021/11/20 11:52:00;;;;;;;21.40;15.27;;;11.50;99.90;;;;;;4877661;29;20413;-69
2021/11/20 11:54:31;;;;;;;20.60;15.07;;;11.50;99.90;;;;;;4877577;29;20463;-69
2021/11/20 11:56:57;;;;;;;22.30;14.43;;;11.50;99.90;;;;;;4877537;29;20433;-69
2021/11/20 11:59:38;;;;;;;19.77;15.53;;;11.50;99.90;;;;;;4877878;29;20747;-70
2021/11/20 12:02:14;;;;;;;20.07;14.97;;;11.50;99.90;;;;;;4877569;29;20236;-68
2021/11/20 12:04:43;;;;;;;18.30;13.60;;;11.50;99.90;;;;;;4877344;29;20483;-68
2021/11/20 12:07:08;;;;;;;19.40;15.00;;;11.50;99.90;;;;;;4877516;29;20425;-69
2021/11/20 12:09:39;;;;;;;21.53;14.43;;;11.50;99.90;;;;;;4876376;29;20449;-69
2021/11/20 12:12:25;;;;;;;21.97;16.60;;;11.50;99.90;;;;;;4877992;29;20596;-69
2021/11/20 12:14:50;;;;;;;24.43;14.03;;;11.50;99.90;;;;;;4911021;29;20458;-69
2021/11/20 12:17:37;;;;;;;22.20;15.40;;;11.50;99.90;;;;;;4934610;29;20485;-69
2021/11/20 12:20:28;;;;;;;18.70;13.77;;;11.50;99.90;;;;;;4935960;29;20281;-69
2021/11/20 12:23:05;;;;;;;18.67;13.97;;;11.30;99.90;;;;;;4980486;28;20457;-70
2021/11/20 12:25:47;;;;;;;20.53;15.23;;;11.30;99.90;;;;;;5020439;28;20587;-69
2021/11/20 12:28:38;;;;;;;17.80;13.50;;;11.20;99.90;;;;;;5021296;28;20531;-70
2021/11/20 12:31:41;;;;;;;20.67;15.40;;;11.30;99.90;;;;;;5033100;28;20437;-70
2021/11/20 12:34:31;;;;;;;17.57;14.17;;;11.30;99.90;;;;;;5024326;28;20465;-70
2021/11/20 12:37:24;;;;;;;19.63;15.00;;;11.40;99.90;;;;;;5018981;28;20418;-70
2021/11/20 12:40:08;;;;;;;15.90;13.90;;;11.40;99.90;;;;;;5034438;28;20436;-70
2021/11/20 12:42:58;;;;;;;18.97;14.30;;;11.30;99.90;;;;;;5007205;28;20488;-69
2021/11/20 12:45:50;;;;;;;17.93;13.67;;;11.40;99.90;;;;;;5028052;28;20476;-70
2021/11/20 12:48:33;;;;;;;18.67;16.55;;;11.30;99.90;;;;;;4948618;29;20431;-70
2021/11/20 12:51:19;;;;;;;18.17;14.90;;;11.30;99.90;;;;;;4942372;29;20269;-69
2021/11/20 12:53:45;;;;;;;18.80;14.93;;;11.40;99.90;;;;;;4935874;29;20443;-70